createdAt,value
2023-03-01T00:02:23.785Z,5.09
2023-03-01T00:04:50.577Z,5.08
2023-03-01T00:07:17.668Z,5.11
2023-03-01T00:09:46.883Z,5.01
2023-03-01T00:12:13.988Z,5.01
2023-03-01T00:14:40.931Z,5.03
2023-03-01T00:17:08.196Z,5.02
2023-03-01T00:19:35.246Z,4.95
2023-03-01T00:22:02.322Z,4.98
2023-03-01T00:24:29.045Z,4.92
2023-03-01T00:26:58.860Z,4.88
2023-03-01T00:29:25.681Z,4.87
2023-03-01T00:31:52.851Z,4.85
2023-03-01T00:34:19.706Z,4.82
2023-03-01T00:36:46.796Z,4.78
2023-03-01T00:39:15.052Z,4.82
2023-03-01T00:41:42.768Z,4.79
2023-03-01T00:44:09.818Z,4.77
2023-03-01T00:46:36.994Z,4.73
2023-03-01T00:49:05.511Z,4.68
2023-03-01T00:51:32.940Z,4.69
2023-03-01T00:54:01.536Z,4.67
2023-03-01T00:56:29.072Z,4.63
2023-03-01T00:58:55.909Z,4.66
2023-03-01T01:01:28.176Z,4.65
2023-03-01T01:03:56.850Z,4.60
2023-03-01T01:06:29.201Z,4.59
2023-03-01T01:08:56.269Z,4.55
2023-03-01T01:11:24.566Z,4.55
2023-03-01T01:13:51.501Z,4.50
2023-03-01T01:16:19.160Z,4.51
2023-03-01T01:18:46.121Z,4.46
2023-03-01T01:21:15.150Z,4.49
2023-03-01T01:23:42.104Z,4.45
2023-03-01T01:26:11.343Z,4.43
2023-03-01T01:28:38.251Z,4.43
2023-03-01T01:31:06.060Z,4.40
2023-03-01T01:33:32.954Z,4.38
2023-03-01T01:36:00.000Z,4.38
2023-03-01T01:38:26.832Z,4.34
2023-03-01T01:40:53.934Z,4.39
2023-03-01T01:43:36.448Z,4.32
2023-03-01T01:46:23.894Z,4.35
2023-03-01T01:48:59.800Z,4.27
2023-03-01T01:51:30.134Z,4.24
2023-03-01T01:53:59.626Z,4.23
2023-03-01T01:56:26.754Z,4.23
2023-03-01T01:58:53.695Z,4.19
2023-03-01T02:01:20.966Z,4.19
2023-03-01T02:03:47.795Z,4.21
2023-03-01T02:06:37.197Z,4.18
2023-03-01T02:09:08.216Z,4.15
2023-03-01T02:11:35.229Z,4.16
2023-03-01T02:14:02.044Z,4.14
2023-03-01T02:16:30.432Z,4.11
2023-03-01T02:18:57.649Z,4.08
2023-03-01T02:21:31.087Z,4.11
2023-03-01T02:23:59.517Z,4.04
2023-03-01T02:26:41.332Z,4.02
2023-03-01T02:29:08.075Z,4.04
2023-03-01T02:31:44.500Z,3.99
2023-03-01T02:34:22.375Z,3.94
2023-03-01T02:37:14.080Z,3.95
2023-03-01T02:39:43.432Z,3.93
2023-03-01T02:42:15.651Z,3.91
2023-03-01T02:44:42.393Z,3.89
2023-03-01T02:47:09.438Z,3.88
2023-03-01T02:49:37.239Z,3.86
2023-03-01T02:52:42.952Z,3.82
2023-03-01T02:55:11.676Z,3.84
2023-03-01T02:57:40.453Z,3.80
2023-03-01T03:00:41.197Z,3.82
2023-03-01T03:03:08.422Z,3.76
2023-03-01T03:05:35.317Z,3.72
2023-03-01T03:08:03.210Z,3.71
2023-03-01T03:10:35.598Z,3.70
2023-03-01T03:13:04.620Z,3.70
2023-03-01T03:15:31.567Z,3.68
2023-03-01T03:17:59.124Z,3.64
2023-03-01T03:20:27.118Z,3.64
2023-03-01T03:22:55.031Z,3.63
2023-03-01T03:25:22.097Z,3.61
2023-03-01T03:27:49.848Z,3.60
2023-03-01T03:30:19.419Z,3.61
2023-03-01T03:32:53.288Z,3.60
2023-03-01T03:35:33.532Z,3.56
2023-03-01T03:38:04.741Z,3.58
2023-03-01T03:40:38.861Z,3.56
2023-03-01T03:43:24.537Z,3.51
2023-03-01T03:45:51.972Z,3.52
2023-03-01T03:48:19.162Z,3.47
2023-03-01T03:50:50.837Z,3.50
2023-03-01T03:53:18.017Z,3.46
2023-03-01T03:55:45.510Z,3.42
2023-03-01T03:58:12.563Z,3.41
2023-03-01T04:00:44.281Z,3.40
2023-03-01T04:03:12.410Z,3.39
2023-03-01T04:05:39.664Z,3.34
2023-03-01T04:08:08.273Z,3.31
2023-03-01T04:10:37.302Z,3.34
2023-03-01T04:13:05.359Z,3.35
2023-03-01T04:15:33.386Z,3.34
2023-03-01T04:18:00.692Z,3.38
2023-03-01T04:20:29.483Z,3.29
2023-03-01T04:23:13.948Z,3.28
2023-03-01T04:25:42.079Z,3.21
2023-03-01T04:28:10.084Z,3.19
2023-03-01T04:30:37.652Z,3.22
2023-03-01T04:33:08.805Z,3.22
2023-03-01T04:35:35.952Z,3.19
2023-03-01T04:38:03.763Z,3.19
2023-03-01T04:40:30.514Z,3.12
2023-03-01T04:42:57.586Z,3.18
2023-03-01T04:45:24.484Z,3.16
2023-03-01T04:47:53.179Z,3.14
2023-03-01T04:50:24.437Z,3.11
2023-03-01T04:52:51.542Z,3.06
2023-03-01T04:55:18.571Z,3.10
2023-03-01T04:57:45.687Z,3.06
2023-03-01T05:00:21.093Z,3.03
2023-03-01T05:02:55.404Z,3.09
2023-03-01T05:05:31.379Z,3.07
2023-03-01T05:08:03.037Z,3.01
2023-03-01T05:10:30.591Z,3.02
2023-03-01T05:13:01.009Z,3.03
2023-03-01T05:15:28.839Z,2.98
2023-03-01T05:17:58.039Z,2.92
2023-03-01T05:20:24.994Z,2.92
2023-03-01T05:22:52.860Z,2.90
2023-03-01T05:25:19.617Z,2.89
2023-03-01T05:27:46.715Z,2.92
2023-03-01T05:30:17.092Z,2.88
2023-03-01T05:32:46.607Z,2.83
2023-03-01T05:35:16.909Z,2.83
2023-03-01T05:37:44.960Z,2.84
2023-03-01T05:40:16.596Z,2.86
2023-03-01T05:42:48.500Z,2.84
2023-03-01T05:45:15.927Z,2.85
2023-03-01T05:47:44.743Z,2.85
2023-03-01T05:50:19.961Z,2.81
2023-03-01T05:52:51.308Z,2.92
2023-03-01T05:55:18.842Z,2.87
2023-03-01T05:57:46.000Z,2.82
2023-03-01T06:00:13.750Z,2.82
2023-03-01T06:02:41.006Z,2.82
2023-03-01T06:05:09.380Z,2.80
2023-03-01T06:07:36.674Z,2.83
2023-03-01T06:10:04.665Z,2.85
2023-03-01T06:12:33.811Z,2.85
2023-03-01T06:15:00.995Z,2.86
2023-03-01T06:17:30.508Z,2.86
2023-03-01T06:19:57.420Z,2.83
2023-03-01T06:22:24.581Z,2.86
2023-03-01T06:24:51.361Z,2.86
2023-03-01T06:27:18.442Z,2.87
2023-03-01T06:29:45.639Z,2.90
2023-03-01T06:32:12.773Z,2.92
2023-03-01T06:34:39.561Z,2.92
2023-03-01T06:37:07.547Z,2.92
2023-03-01T06:39:34.369Z,2.92
2023-03-01T06:42:01.512Z,2.94
2023-03-01T06:44:28.455Z,2.97
2023-03-01T06:46:55.596Z,2.99
2023-03-01T06:49:22.587Z,2.99
2023-03-01T06:51:49.689Z,3.03
2023-03-01T06:54:16.470Z,3.05
2023-03-01T06:56:43.520Z,3.08
2023-03-01T06:59:10.328Z,3.17
2023-03-01T07:01:37.410Z,3.15
2023-03-01T07:04:04.361Z,3.15
2023-03-01T07:06:31.817Z,3.15
2023-03-01T07:08:58.769Z,3.25
2023-03-01T07:11:25.894Z,3.24
2023-03-01T07:13:52.673Z,3.33
2023-03-01T07:16:21.389Z,3.32
2023-03-01T07:18:48.160Z,3.37
2023-03-01T07:21:15.793Z,3.45
2023-03-01T07:23:42.513Z,3.50
2023-03-01T07:26:09.538Z,3.52
2023-03-01T07:28:40.148Z,3.53
2023-03-01T07:31:07.268Z,3.56
2023-03-01T07:33:34.022Z,3.60
2023-03-01T07:36:02.402Z,3.64
2023-03-01T07:38:29.729Z,3.67
2023-03-01T07:41:03.825Z,3.71
2023-03-01T07:43:30.830Z,3.78
2023-03-01T07:46:01.928Z,3.82
2023-03-01T07:48:29.284Z,3.92
2023-03-01T07:50:59.795Z,3.97
2023-03-01T07:53:26.550Z,4.03
2023-03-01T07:56:06.637Z,4.08
2023-03-01T07:58:35.837Z,4.17
2023-03-01T08:01:04.124Z,4.21
2023-03-01T08:03:30.852Z,4.28
2023-03-01T08:06:00.519Z,4.34
2023-03-01T08:08:27.369Z,4.41
2023-03-01T08:10:57.635Z,4.46
2023-03-01T08:13:24.379Z,4.56
2023-03-01T08:15:51.459Z,4.61
2023-03-01T08:18:19.027Z,4.68
2023-03-01T08:20:46.388Z,4.74
2023-03-01T08:23:13.277Z,4.82
2023-03-01T08:25:40.644Z,4.89
2023-03-01T08:28:07.412Z,4.96
2023-03-01T08:30:35.181Z,5.02
2023-03-01T08:33:02.039Z,5.09
2023-03-01T08:35:29.144Z,5.15
2023-03-01T08:37:55.926Z,5.23
2023-03-01T08:40:23.098Z,5.45
2023-03-01T08:42:49.929Z,5.62
2023-03-01T08:45:19.248Z,5.84
2023-03-01T08:47:46.294Z,5.99
2023-03-01T08:50:13.407Z,6.16
2023-03-01T08:52:40.234Z,6.29
2023-03-01T08:55:08.131Z,6.24
2023-03-01T08:57:34.934Z,6.26
2023-03-01T09:00:01.992Z,6.29
2023-03-01T09:02:29.027Z,6.34
2023-03-01T09:04:56.152Z,6.38
2023-03-01T09:07:22.893Z,6.41
2023-03-01T09:09:49.988Z,6.46
2023-03-01T09:12:16.771Z,6.53
2023-03-01T09:14:43.886Z,6.61
2023-03-01T09:17:10.763Z,6.64
2023-03-01T09:19:38.153Z,6.73
2023-03-01T09:22:05.679Z,6.80
2023-03-01T09:24:32.748Z,6.87
2023-03-01T09:26:59.503Z,6.97
2023-03-01T09:29:26.990Z,7.01
2023-03-01T09:31:56.265Z,7.09
2023-03-01T09:34:24.478Z,7.17
2023-03-01T09:36:52.148Z,7.25
2023-03-01T09:39:19.262Z,7.31
2023-03-01T09:41:58.808Z,7.41
2023-03-01T09:44:32.137Z,7.49
2023-03-01T09:46:59.252Z,7.56
2023-03-01T09:49:28.252Z,7.66
2023-03-01T09:52:15.054Z,7.74
2023-03-01T09:54:42.109Z,7.81
2023-03-01T09:57:27.674Z,7.89
2023-03-01T10:00:17.063Z,7.98
2023-03-01T10:02:50.885Z,8.09
2023-03-01T10:06:07.480Z,8.18
2023-03-01T10:08:49.574Z,8.31
2023-03-01T10:11:28.343Z,8.40
2023-03-01T10:14:07.020Z,8.45
2023-03-01T10:16:40.180Z,8.61
2023-03-01T10:19:07.678Z,8.66
2023-03-01T10:21:37.207Z,8.77
2023-03-01T10:24:13.193Z,8.89
2023-03-01T10:26:57.700Z,8.96
2023-03-01T10:29:31.949Z,9.07
2023-03-01T10:31:59.019Z,9.15
2023-03-01T10:34:31.105Z,9.23
2023-03-01T10:37:02.049Z,9.24
2023-03-01T10:39:28.919Z,9.30
2023-03-01T10:42:06.649Z,9.38
2023-03-01T10:44:48.405Z,9.47
2023-03-01T10:47:24.353Z,9.49
2023-03-01T10:50:05.675Z,9.53
2023-03-01T10:52:33.920Z,9.55
2023-03-01T10:55:03.541Z,9.56
2023-03-01T10:57:33.305Z,9.59
2023-03-01T11:00:23.377Z,9.73
2023-03-01T11:02:59.539Z,9.80
2023-03-01T11:05:26.709Z,9.83
2023-03-01T11:07:56.094Z,9.87
2023-03-01T11:10:41.153Z,9.91
2023-03-01T11:13:18.546Z,9.93
2023-03-01T11:16:00.033Z,10.06
2023-03-01T11:18:44.339Z,10.07
2023-03-01T11:21:12.875Z,10.16
2023-03-01T11:23:39.971Z,10.21
2023-03-01T11:26:10.719Z,10.24
2023-03-01T11:28:38.978Z,10.27
2023-03-01T11:31:12.672Z,10.31
2023-03-01T11:33:58.868Z,10.35
2023-03-01T11:36:34.780Z,10.36
2023-03-01T11:39:10.062Z,10.45
2023-03-01T11:41:37.617Z,10.55
2023-03-01T11:44:15.343Z,10.55
2023-03-01T11:47:09.809Z,10.67
2023-03-01T11:49:58.849Z,10.77
2023-03-01T11:52:31.436Z,10.84
2023-03-01T11:55:30.060Z,10.80
2023-03-01T11:58:47.617Z,10.92
2023-03-01T12:01:59.532Z,11.00
2023-03-01T12:04:35.179Z,11.03
2023-03-01T12:07:07.065Z,11.06
2023-03-01T12:09:45.951Z,11.10
2023-03-01T12:12:31.787Z,11.21
2023-03-01T12:15:21.880Z,11.23
2023-03-01T12:18:10.955Z,11.21
2023-03-01T12:21:03.153Z,11.28
2023-03-01T12:23:45.440Z,11.29
2023-03-01T12:26:29.085Z,11.41
2023-03-01T12:29:01.193Z,11.49
2023-03-01T12:31:37.333Z,11.55
2023-03-01T12:34:22.772Z,11.60
2023-03-01T12:36:58.719Z,11.50
2023-03-01T12:39:47.223Z,11.52
2023-03-01T12:42:32.864Z,11.63
2023-03-01T12:45:18.211Z,11.60
2023-03-01T12:48:06.382Z,11.73
2023-03-01T12:50:44.813Z,11.79
2023-03-01T12:53:32.305Z,11.85
2023-03-01T12:56:07.346Z,11.88
2023-03-01T12:58:48.820Z,11.88
2023-03-01T13:01:38.343Z,11.93
2023-03-01T13:04:19.331Z,11.99
2023-03-01T13:06:57.268Z,12.02
2023-03-01T13:09:25.740Z,12.02
2023-03-01T13:11:52.821Z,12.01
2023-03-01T13:14:44.644Z,11.98
2023-03-01T13:17:31.042Z,12.07
2023-03-01T13:19:59.091Z,12.12
2023-03-01T13:22:29.094Z,12.10
2023-03-01T13:25:03.553Z,12.01
2023-03-01T13:27:30.725Z,11.94
2023-03-01T13:30:02.026Z,12.02
2023-03-01T13:32:43.140Z,12.14
2023-03-01T13:35:17.978Z,12.19
2023-03-01T13:37:45.429Z,12.24
2023-03-01T13:40:19.653Z,12.19
2023-03-01T13:43:04.577Z,12.27
2023-03-01T13:45:42.272Z,12.29
2023-03-01T13:48:17.675Z,12.26
2023-03-01T13:50:54.003Z,12.26
2023-03-01T13:53:23.865Z,12.28
2023-03-01T13:55:54.829Z,12.29
2023-03-01T13:58:26.797Z,12.31
2023-03-01T14:01:05.459Z,12.36
2023-03-01T14:03:34.158Z,12.32
2023-03-01T14:06:14.846Z,12.37
2023-03-01T14:08:43.166Z,12.38
2023-03-01T14:11:44.122Z,12.37
2023-03-01T14:14:29.658Z,12.26
2023-03-01T14:17:15.025Z,12.30
2023-03-01T14:19:45.910Z,12.34
2023-03-01T14:22:23.363Z,12.35
2023-03-01T14:24:59.170Z,12.36
2023-03-01T14:27:44.349Z,12.35
2023-03-01T14:30:33.779Z,12.36
2023-03-01T14:33:02.287Z,12.33
2023-03-01T14:35:34.921Z,12.36
2023-03-01T14:38:02.018Z,12.35
2023-03-01T14:40:33.242Z,12.36
2023-03-01T14:43:01.224Z,12.30
2023-03-01T14:45:29.393Z,12.36
2023-03-01T14:47:57.105Z,12.35
2023-03-01T14:50:34.828Z,12.35
2023-03-01T14:53:05.293Z,12.36
2023-03-01T14:55:33.525Z,12.35
2023-03-01T14:58:03.151Z,12.37
2023-03-01T15:00:31.456Z,12.36
2023-03-01T15:03:01.606Z,12.35
2023-03-01T15:05:32.945Z,12.34
2023-03-01T15:08:01.255Z,12.30
2023-03-01T15:10:31.545Z,12.32
2023-03-01T15:13:13.871Z,12.30
2023-03-01T15:15:47.704Z,12.30
2023-03-01T15:18:16.212Z,12.29
2023-03-01T15:20:43.619Z,12.27
2023-03-01T15:23:27.969Z,12.27
2023-03-01T15:25:58.531Z,12.24
2023-03-01T15:28:30.696Z,12.21
2023-03-01T15:31:20.236Z,12.15
2023-03-01T15:33:48.382Z,12.16
2023-03-01T15:36:31.250Z,12.18
2023-03-01T15:38:59.264Z,12.16
2023-03-01T15:41:39.670Z,12.16
2023-03-01T15:44:29.988Z,12.13
2023-03-01T15:47:02.475Z,12.11
2023-03-01T15:49:54.471Z,12.10
2023-03-01T15:52:32.344Z,12.06
2023-03-01T15:55:03.493Z,12.06
2023-03-01T15:57:30.771Z,12.02
2023-03-01T15:59:57.581Z,12.01
2023-03-01T16:02:25.325Z,11.99
2023-03-01T16:04:52.272Z,11.97
2023-03-01T16:07:19.376Z,11.92
2023-03-01T16:09:46.265Z,11.91
2023-03-01T16:12:16.839Z,11.89
2023-03-01T16:14:43.749Z,11.87
2023-03-01T16:17:11.324Z,11.85
2023-03-01T16:19:39.014Z,11.82
2023-03-01T16:22:06.093Z,11.79
2023-03-01T16:24:32.882Z,11.77
2023-03-01T16:27:00.058Z,11.73
2023-03-01T16:29:27.139Z,11.69
2023-03-01T16:31:54.415Z,11.67
2023-03-01T16:34:22.883Z,11.63
2023-03-01T16:36:50.169Z,11.58
2023-03-01T16:39:17.633Z,11.54
2023-03-01T16:41:44.894Z,11.49
2023-03-01T16:44:11.651Z,11.43
2023-03-01T16:46:38.811Z,11.39
2023-03-01T16:49:05.604Z,11.35
2023-03-01T16:51:35.660Z,11.32
2023-03-01T16:54:02.988Z,11.26
2023-03-01T16:56:31.275Z,11.23
2023-03-01T16:58:58.257Z,11.18
2023-03-01T17:01:26.887Z,11.12
2023-03-01T17:03:53.737Z,11.09
2023-03-01T17:06:21.646Z,11.03
2023-03-01T17:08:48.460Z,10.99
2023-03-01T17:11:20.031Z,10.96
2023-03-01T17:13:47.073Z,10.91
2023-03-01T17:16:15.778Z,10.87
2023-03-01T17:18:42.785Z,10.83
2023-03-01T17:21:10.174Z,10.78
2023-03-01T17:23:37.812Z,10.74
2023-03-01T17:26:05.105Z,10.69
2023-03-01T17:28:32.794Z,10.66
2023-03-01T17:31:00.776Z,10.61
2023-03-01T17:33:27.698Z,10.58
2023-03-01T17:35:54.970Z,10.55
2023-03-01T17:39:36.623Z,10.48
2023-03-01T17:42:05.233Z,10.44
2023-03-01T17:44:34.573Z,10.37
2023-03-01T17:47:02.952Z,10.32
2023-03-01T17:49:30.151Z,10.28
2023-03-01T17:51:57.589Z,10.26
2023-03-01T17:54:24.711Z,10.24
2023-03-01T17:56:52.172Z,10.20
2023-03-01T17:59:19.384Z,10.15
2023-03-01T18:01:46.823Z,10.10
2023-03-01T18:04:13.862Z,10.07
2023-03-01T18:06:41.152Z,10.03
2023-03-01T18:09:08.253Z,9.99
2023-03-01T18:11:35.626Z,9.96
2023-03-01T18:14:02.796Z,9.93
2023-03-01T18:16:32.532Z,9.87
2023-03-01T18:19:00.203Z,9.83
2023-03-01T18:21:41.062Z,9.78
2023-03-01T18:24:07.904Z,9.77
2023-03-01T18:26:35.678Z,9.73
2023-03-01T18:29:04.888Z,9.65
2023-03-01T18:31:33.574Z,9.63
2023-03-01T18:34:03.541Z,9.60
2023-03-01T18:36:32.657Z,9.56
2023-03-01T18:38:59.731Z,9.50
2023-03-01T18:41:27.652Z,9.49
2023-03-01T18:43:54.722Z,9.43
2023-03-01T18:46:22.221Z,9.39
2023-03-01T18:48:49.071Z,9.35
2023-03-01T18:51:18.351Z,9.32
2023-03-01T18:53:45.296Z,9.28
2023-03-01T18:56:12.523Z,9.26
2023-03-01T18:58:39.614Z,9.20
2023-03-01T19:01:08.429Z,9.15
2023-03-01T19:03:35.589Z,9.10
2023-03-01T19:06:02.804Z,9.08
2023-03-01T19:08:31.469Z,9.03
2023-03-01T19:11:02.176Z,8.99
2023-03-01T19:13:29.014Z,8.96
2023-03-01T19:16:23.938Z,8.95
2023-03-01T19:18:51.702Z,8.85
2023-03-01T19:21:20.258Z,8.84
2023-03-01T19:23:48.629Z,8.77
2023-03-01T19:26:16.958Z,8.71
2023-03-01T19:28:44.336Z,8.70
2023-03-01T19:31:16.622Z,8.70
2023-03-01T19:33:43.525Z,8.67
2023-03-01T19:36:11.713Z,8.63
2023-03-01T19:38:39.188Z,8.61
2023-03-01T19:41:07.374Z,8.59
2023-03-01T19:43:34.268Z,8.55
2023-03-01T19:46:01.730Z,8.51
2023-03-01T19:48:28.859Z,8.48
2023-03-01T19:50:56.252Z,8.39
2023-03-01T19:53:23.257Z,8.36
2023-03-01T19:55:53.145Z,8.27
2023-03-01T19:58:20.136Z,8.28
2023-03-01T20:00:47.480Z,8.24
2023-03-01T20:03:14.423Z,8.26
2023-03-01T20:05:42.965Z,8.14
2023-03-01T20:08:09.800Z,8.16
2023-03-01T20:10:36.884Z,8.15
2023-03-01T20:13:03.934Z,8.12
2023-03-01T20:15:31.206Z,8.09
2023-03-01T20:17:58.056Z,8.05
2023-03-01T20:20:25.227Z,8.00
2023-03-01T20:22:52.178Z,7.94
2023-03-01T20:25:19.342Z,7.97
2023-03-01T20:27:47.527Z,7.96
2023-03-01T20:30:15.421Z,7.92
2023-03-01T20:32:42.455Z,7.85
2023-03-01T20:35:10.335Z,7.76
2023-03-01T20:37:37.491Z,7.78
2023-03-01T20:40:05.274Z,7.75
2023-03-01T20:42:32.154Z,7.75
2023-03-01T20:44:59.283Z,7.70
2023-03-01T20:47:26.321Z,7.63
2023-03-01T20:49:53.805Z,7.65
2023-03-01T20:52:20.640Z,7.65
2023-03-01T20:54:47.776Z,7.59
2023-03-01T20:57:14.765Z,7.54
2023-03-01T20:59:42.168Z,7.51
2023-03-01T21:02:10.766Z,7.48
2023-03-01T21:04:37.961Z,7.43
2023-03-01T21:07:04.737Z,7.45
2023-03-01T21:09:31.861Z,7.43
2023-03-01T21:11:58.728Z,7.41
2023-03-01T21:14:25.857Z,7.31
2023-03-01T21:16:52.693Z,7.30
2023-03-01T21:19:22.468Z,7.31
2023-03-01T21:21:50.398Z,7.24
2023-03-01T21:27:53.608Z,7.11
2023-03-01T21:30:32.066Z,7.10
2023-03-01T21:32:59.967Z,7.10
2023-03-01T21:35:27.230Z,7.10
2023-03-01T21:37:54.028Z,7.08
2023-03-01T21:40:21.112Z,7.08
2023-03-01T21:42:49.677Z,6.99
2023-03-01T21:45:16.918Z,6.98
2023-03-01T21:47:43.721Z,6.94
2023-03-01T21:50:11.538Z,6.89
2023-03-01T21:52:38.265Z,6.91
2023-03-01T21:55:05.742Z,6.86
2023-03-01T21:57:32.626Z,6.86
2023-03-01T21:59:59.689Z,6.83
2023-03-01T22:02:26.560Z,6.79
2023-03-01T22:05:11.995Z,6.77
2023-03-01T22:07:39.303Z,6.71
2023-03-01T22:10:07.599Z,6.75
2023-03-01T22:12:34.706Z,6.64
2023-03-01T22:15:01.469Z,6.67
2023-03-01T22:17:28.832Z,6.58
2023-03-01T22:19:55.550Z,6.57
2023-03-01T22:22:22.601Z,6.56
2023-03-01T22:24:49.355Z,6.55
2023-03-01T22:27:16.459Z,6.50
2023-03-01T22:29:43.453Z,6.49
2023-03-01T22:32:10.659Z,6.44
2023-03-01T22:34:37.594Z,6.44
2023-03-01T22:37:04.679Z,6.43
2023-03-01T22:39:31.539Z,6.42
2023-03-01T22:41:58.568Z,6.37
2023-03-01T22:44:25.369Z,6.28
2023-03-01T22:46:52.935Z,6.31
2023-03-01T22:49:19.980Z,6.20
2023-03-01T22:51:50.025Z,6.18
2023-03-01T22:54:17.323Z,6.21
2023-03-01T22:56:44.465Z,6.18
2023-03-01T22:59:13.461Z,6.17
2023-03-01T23:01:41.864Z,6.12
2023-03-01T23:04:08.677Z,6.09
2023-03-01T23:06:50.637Z,6.11
2023-03-01T23:09:18.413Z,6.08
2023-03-01T23:11:45.583Z,6.06
2023-03-01T23:14:12.415Z,6.07
2023-03-01T23:16:39.750Z,6.04
2023-03-01T23:19:06.627Z,5.99
2023-03-01T23:21:33.712Z,5.93
2023-03-01T23:24:00.485Z,5.92
2023-03-01T23:26:28.475Z,5.84
2023-03-01T23:28:56.210Z,5.86
2023-03-01T23:31:23.356Z,5.82
2023-03-01T23:33:50.203Z,5.74
2023-03-01T23:36:23.047Z,5.73
2023-03-01T23:38:51.462Z,5.80
2023-03-01T23:41:20.286Z,5.68
2023-03-01T23:43:48.208Z,5.70
2023-03-01T23:46:15.784Z,5.73
2023-03-01T23:48:43.087Z,5.67
2023-03-01T23:51:10.392Z,5.67
2023-03-01T23:53:39.525Z,5.59
2023-03-01T23:56:07.269Z,5.60
2023-03-01T23:58:34.066Z,5.51
